createdAt,value
2023-05-18T00:02:26.522Z,3.38
2023-05-18T00:04:54.089Z,3.53
2023-05-18T00:07:21.526Z,3.40
2023-05-18T00:09:48.812Z,3.47
2023-05-18T00:12:18.430Z,3.92
2023-05-18T00:14:48.283Z,3.83
2023-05-18T00:17:16.044Z,3.00
2023-05-18T00:19:46.493Z,3.30
2023-05-18T00:22:18.910Z,3.80
2023-05-18T00:24:46.808Z,3.30
2023-05-18T00:27:16.293Z,3.25
2023-05-18T00:29:43.593Z,3.58
2023-05-18T00:32:12.794Z,2.97
2023-05-18T00:34:40.080Z,3.45
2023-05-18T00:37:07.435Z,3.10
2023-05-18T00:39:34.745Z,3.00
2023-05-18T00:42:03.277Z,3.25
2023-05-18T00:44:30.728Z,3.22
2023-05-18T00:47:00.160Z,3.10
2023-05-18T00:49:27.642Z,3.30
2023-05-18T00:51:55.932Z,3.50
2023-05-18T00:54:26.023Z,3.47
2023-05-18T00:56:53.556Z,3.35
2023-05-18T00:59:21.999Z,3.45
2023-05-18T01:01:53.383Z,3.20
2023-05-18T01:04:21.661Z,3.05
2023-05-18T01:06:50.999Z,3.10
2023-05-18T01:09:18.346Z,2.92
2023-05-18T01:12:05.782Z,3.67
2023-05-18T01:14:45.551Z,3.22
2023-05-18T01:17:45.276Z,3.05
2023-05-18T01:20:19.276Z,3.05
2023-05-18T01:22:50.624Z,2.90
2023-05-18T01:25:19.404Z,3.10
2023-05-18T01:27:47.375Z,3.10
2023-05-18T01:30:19.856Z,3.20
2023-05-18T01:32:47.278Z,3.00
2023-05-18T01:35:14.583Z,3.15
2023-05-18T01:37:41.953Z,3.75
2023-05-18T01:40:11.941Z,3.05
2023-05-18T01:42:47.026Z,3.28
2023-05-18T01:45:31.030Z,3.33
2023-05-18T01:48:02.273Z,3.30
2023-05-18T01:50:37.874Z,3.28
2023-05-18T01:53:05.048Z,3.08
2023-05-18T01:55:34.364Z,3.00
2023-05-18T01:58:03.473Z,3.10
2023-05-18T02:00:31.225Z,3.50
2023-05-18T02:02:59.261Z,3.30
2023-05-18T02:05:29.203Z,3.65
2023-05-18T02:07:57.185Z,3.22
2023-05-18T02:10:24.616Z,3.00
2023-05-18T02:12:53.731Z,3.10
2023-05-18T02:15:21.487Z,3.20
2023-05-18T02:17:52.084Z,3.05
2023-05-18T02:20:19.566Z,2.88
2023-05-18T02:22:46.986Z,2.83
2023-05-18T02:25:14.360Z,3.30
2023-05-18T02:27:43.886Z,3.13
2023-05-18T02:30:14.451Z,3.15
2023-05-18T02:32:47.221Z,3.33
2023-05-18T02:35:15.852Z,3.20
2023-05-18T02:37:44.298Z,3.47
2023-05-18T02:40:13.113Z,3.28
2023-05-18T02:42:42.889Z,2.97
2023-05-18T02:45:11.971Z,3.08
2023-05-18T02:47:43.859Z,2.95
2023-05-18T02:50:11.598Z,3.08
2023-05-18T02:52:39.322Z,3.30
2023-05-18T02:55:09.203Z,2.97
2023-05-18T02:57:56.930Z,3.13
2023-05-18T03:00:31.897Z,2.92
2023-05-18T03:03:03.010Z,3.10
2023-05-18T03:05:31.028Z,3.25
2023-05-18T03:07:58.398Z,3.25
2023-05-18T03:10:25.730Z,3.00
2023-05-18T03:12:53.291Z,2.75
2023-05-18T03:15:20.665Z,3.05
2023-05-18T03:17:48.053Z,2.90
2023-05-18T03:20:15.794Z,3.28
2023-05-18T03:22:43.371Z,3.17
2023-05-18T03:25:10.726Z,2.70
2023-05-18T03:27:38.562Z,3.20
2023-05-18T03:30:06.445Z,2.83
2023-05-18T03:32:34.115Z,2.80
2023-05-18T03:35:01.976Z,2.30
2023-05-18T03:37:30.588Z,2.83
2023-05-18T03:40:11.106Z,2.60
2023-05-18T03:42:42.304Z,2.70
2023-05-18T03:45:10.948Z,2.80
2023-05-18T03:47:39.556Z,3.30
2023-05-18T03:50:08.180Z,2.70
2023-05-18T03:52:36.253Z,2.80
2023-05-18T03:55:04.995Z,2.65
2023-05-18T03:57:33.249Z,2.60
2023-05-18T04:00:13.473Z,2.75
2023-05-18T04:02:51.830Z,2.70
2023-05-18T04:05:23.289Z,2.60
2023-05-18T04:07:52.820Z,3.05
2023-05-18T04:10:21.339Z,3.25
2023-05-18T04:12:49.220Z,2.65
2023-05-18T04:15:17.361Z,2.80
2023-05-18T04:17:45.958Z,2.65
2023-05-18T04:20:14.595Z,2.55
2023-05-18T04:22:43.563Z,3.03
2023-05-18T04:25:11.717Z,2.55
2023-05-18T04:27:42.315Z,3.25
2023-05-18T04:30:11.576Z,2.60
2023-05-18T04:32:42.904Z,2.75
2023-05-18T04:35:12.044Z,2.70
2023-05-18T04:37:42.958Z,2.80
2023-05-18T04:40:14.370Z,2.60
2023-05-18T04:42:48.273Z,2.60
2023-05-18T04:45:26.197Z,2.40
2023-05-18T04:47:55.433Z,3.07
2023-05-18T04:50:26.113Z,2.70
2023-05-18T04:52:58.132Z,2.60
2023-05-18T04:58:01.349Z,2.60
2023-05-18T05:00:30.177Z,2.75
2023-05-18T05:02:59.003Z,2.70
2023-05-18T05:05:29.920Z,3.30
2023-05-18T05:07:57.632Z,2.83
2023-05-18T05:10:28.347Z,2.90
2023-05-18T05:12:55.931Z,2.38
2023-05-18T05:15:23.162Z,2.70
2023-05-18T05:17:51.662Z,3.28
2023-05-18T05:20:19.170Z,3.00
2023-05-18T05:22:46.475Z,2.60
2023-05-18T05:25:16.908Z,3.13
2023-05-18T05:27:47.339Z,2.92
2023-05-18T05:30:18.834Z,2.65
2023-05-18T05:32:48.725Z,2.90
2023-05-18T05:35:18.763Z,2.45
2023-05-18T05:37:49.701Z,2.30
2023-05-18T05:40:17.826Z,2.60
2023-05-18T05:42:47.867Z,2.55
2023-05-18T05:45:47.665Z,2.75
2023-05-18T05:48:23.884Z,2.70
2023-05-18T05:50:51.254Z,2.47
2023-05-18T05:53:49.202Z,2.70
2023-05-18T05:56:18.299Z,2.47
2023-05-18T05:58:50.270Z,2.22
2023-05-18T06:01:17.603Z,2.92
2023-05-18T06:03:52.294Z,2.45
2023-05-18T06:06:19.982Z,2.60
2023-05-18T06:08:47.365Z,3.03
2023-05-18T06:11:14.957Z,2.30
2023-05-18T06:13:42.382Z,2.63
2023-05-18T06:16:09.780Z,3.05
2023-05-18T06:18:37.533Z,2.92
2023-05-18T06:21:06.355Z,2.72
2023-05-18T06:23:33.821Z,2.65
2023-05-18T06:26:03.972Z,2.85
2023-05-18T06:28:34.149Z,2.67
2023-05-18T06:31:12.976Z,2.83
2023-05-18T06:33:50.296Z,2.55
2023-05-18T06:36:17.818Z,2.45
2023-05-18T06:38:45.110Z,2.80
2023-05-18T06:41:12.414Z,2.90
2023-05-18T06:43:39.802Z,2.13
2023-05-18T06:48:54.859Z,2.72
2023-05-18T06:51:22.290Z,2.30
2023-05-18T06:53:52.360Z,2.47
2023-05-18T06:56:19.988Z,2.63
2023-05-18T06:58:49.825Z,2.65
2023-05-18T07:01:19.512Z,2.35
2023-05-18T07:03:47.301Z,2.40
2023-05-18T07:06:14.725Z,2.88
2023-05-18T07:08:46.821Z,2.15
2023-05-18T07:11:14.815Z,2.77
2023-05-18T07:13:44.445Z,2.30
2023-05-18T07:16:48.513Z,2.42
2023-05-18T07:19:22.010Z,2.58
2023-05-18T07:21:51.876Z,2.70
2023-05-18T07:24:21.711Z,2.83
2023-05-18T07:26:48.915Z,2.47
2023-05-18T07:29:16.228Z,2.28
2023-05-18T07:31:43.661Z,2.33
2023-05-18T07:34:10.925Z,2.70
2023-05-18T07:36:40.464Z,2.92
2023-05-18T07:39:08.222Z,2.53
2023-05-18T07:41:36.140Z,2.20
2023-05-18T07:44:05.557Z,2.90
2023-05-18T07:46:32.991Z,2.35
2023-05-18T07:49:05.751Z,2.40
2023-05-18T07:51:34.217Z,2.72
2023-05-18T07:54:01.576Z,3.00
2023-05-18T07:56:28.884Z,2.80
2023-05-18T07:58:56.218Z,2.42
2023-05-18T08:01:27.766Z,2.35
2023-05-18T08:03:55.521Z,2.60
2023-05-18T08:06:22.979Z,2.30
2023-05-18T08:08:50.649Z,2.47
2023-05-18T08:11:18.072Z,2.65
2023-05-18T08:13:49.410Z,3.08
2023-05-18T08:16:19.956Z,2.35
2023-05-18T08:18:47.268Z,2.50
2023-05-18T08:21:14.792Z,1.92
2023-05-18T08:23:42.585Z,2.55
2023-05-18T08:26:14.898Z,2.75
2023-05-18T08:28:42.539Z,2.80
2023-05-18T08:31:11.402Z,2.20
2023-05-18T08:33:38.839Z,2.63
2023-05-18T08:36:09.303Z,2.60
2023-05-18T08:38:36.638Z,2.45
2023-05-18T08:41:30.044Z,2.83
2023-05-18T08:46:43.304Z,2.70
2023-05-18T08:49:11.045Z,2.63
2023-05-18T08:51:43.508Z,2.58
2023-05-18T08:54:15.683Z,2.22
2023-05-18T08:56:44.190Z,2.17
2023-05-18T08:59:17.053Z,3.15
2023-05-18T09:01:44.512Z,2.42
2023-05-18T09:04:16.292Z,2.70
2023-05-18T09:06:46.464Z,2.42
2023-05-18T09:09:15.208Z,2.65
2023-05-18T09:11:45.755Z,2.22
2023-05-18T09:14:13.407Z,2.38
2023-05-18T09:16:41.072Z,2.30
2023-05-18T09:19:08.443Z,2.58
2023-05-18T09:21:37.888Z,2.22
2023-05-18T09:24:05.655Z,2.38
2023-05-18T09:26:33.298Z,2.40
2023-05-18T09:29:01.432Z,2.80
2023-05-18T09:31:30.708Z,2.10
2023-05-18T09:33:59.515Z,2.85
2023-05-18T09:36:29.073Z,2.17
2023-05-18T09:38:59.267Z,2.35
2023-05-18T09:41:27.941Z,2.40
2023-05-18T09:43:57.375Z,2.30
2023-05-18T09:46:26.942Z,2.40
2023-05-18T09:48:55.085Z,2.80
2023-05-18T09:51:26.842Z,2.78
2023-05-18T09:53:58.822Z,2.40
2023-05-18T09:56:27.015Z,2.28
2023-05-18T09:58:55.209Z,2.78
2023-05-18T10:01:23.182Z,2.55
2023-05-18T10:03:50.633Z,2.67
2023-05-18T10:06:22.495Z,3.42
2023-05-18T10:08:50.231Z,2.60
2023-05-18T10:11:19.702Z,2.55
2023-05-18T10:13:47.192Z,2.42
2023-05-18T10:16:15.681Z,2.55
2023-05-18T10:18:43.624Z,2.65
2023-05-18T10:21:12.773Z,2.58
2023-05-18T10:23:41.131Z,2.47
2023-05-18T10:26:09.914Z,2.30
2023-05-18T10:28:44.828Z,2.78
2023-05-18T10:31:16.547Z,3.00
2023-05-18T10:33:45.767Z,2.45
2023-05-18T10:36:13.491Z,2.55
2023-05-18T10:38:45.197Z,2.10
2023-05-18T10:41:13.436Z,2.33
2023-05-18T10:43:41.798Z,2.53
2023-05-18T10:46:09.835Z,2.80
2023-05-18T10:48:40.944Z,2.95
2023-05-18T10:51:08.857Z,2.72
2023-05-18T10:53:48.805Z,2.50
2023-05-18T10:56:16.749Z,2.40
2023-05-18T10:58:48.769Z,2.35
2023-05-18T11:01:16.292Z,2.35
2023-05-18T11:03:43.671Z,2.42
2023-05-18T11:06:13.129Z,2.30
2023-05-18T11:08:48.593Z,2.55
2023-05-18T11:11:19.236Z,2.45
2023-05-18T11:13:51.642Z,2.50
2023-05-18T11:16:20.743Z,2.83
2023-05-18T11:18:55.493Z,2.23
2023-05-18T11:21:29.012Z,2.47
2023-05-18T11:24:18.403Z,2.53
2023-05-18T11:26:52.372Z,2.92
2023-05-18T11:29:41.953Z,2.60
2023-05-18T11:32:34.129Z,2.63
2023-05-18T11:35:02.105Z,2.70
2023-05-18T11:37:44.939Z,2.40
2023-05-18T11:40:16.291Z,2.67
2023-05-18T11:42:57.671Z,2.60
2023-05-18T11:45:25.403Z,3.22
2023-05-18T11:48:01.959Z,2.55
2023-05-18T11:50:37.678Z,1.90
2023-05-18T11:53:09.072Z,2.10
2023-05-18T11:55:42.002Z,2.55
2023-05-18T11:58:10.398Z,2.65
2023-05-18T12:00:38.061Z,2.50
2023-05-18T12:03:06.781Z,2.05
2023-05-18T12:05:35.932Z,2.60
2023-05-18T12:08:04.401Z,2.42
2023-05-18T12:10:34.481Z,2.00
2023-05-18T12:13:03.135Z,2.33
2023-05-18T12:15:33.535Z,2.65
2023-05-18T12:18:00.973Z,2.33
2023-05-18T12:20:29.217Z,2.50
2023-05-18T12:22:57.105Z,2.60
2023-05-18T12:25:26.916Z,2.78
2023-05-18T12:27:55.302Z,2.17
2023-05-18T12:30:24.969Z,2.30
2023-05-18T12:32:59.673Z,2.65
2023-05-18T12:35:28.341Z,2.42
2023-05-18T12:37:59.872Z,2.58
2023-05-18T12:40:28.588Z,2.45
2023-05-18T12:42:59.518Z,2.00
2023-05-18T12:45:29.755Z,2.08
2023-05-18T12:48:03.778Z,2.40
2023-05-18T12:50:31.537Z,1.92
2023-05-18T12:53:01.767Z,2.20
2023-05-18T12:55:30.933Z,2.67
2023-05-18T12:58:03.656Z,2.30
2023-05-18T13:00:38.026Z,2.75
2023-05-18T13:03:13.524Z,2.60
2023-05-18T13:05:44.820Z,2.55
2023-05-18T13:08:21.992Z,2.03
2023-05-18T13:11:05.208Z,2.33
2023-05-18T13:13:39.959Z,2.85
2023-05-18T13:16:18.739Z,2.50
2023-05-18T13:18:56.879Z,2.08
2023-05-18T13:21:27.151Z,2.25
2023-05-18T13:23:57.216Z,2.40
2023-05-18T13:26:25.422Z,2.35
2023-05-18T13:28:57.116Z,2.00
2023-05-18T13:31:35.051Z,2.10
2023-05-18T13:34:17.988Z,2.20
2023-05-18T13:36:59.695Z,1.90
2023-05-18T13:39:31.682Z,2.00
2023-05-18T13:42:20.857Z,2.63
2023-05-18T13:44:52.050Z,1.92
2023-05-18T13:47:19.693Z,2.50
2023-05-18T13:49:47.128Z,2.30
2023-05-18T13:52:36.043Z,2.05
2023-05-18T13:55:11.895Z,1.90
2023-05-18T13:57:42.171Z,2.20
2023-05-18T14:00:19.149Z,2.15
2023-05-18T14:02:51.080Z,2.20
2023-05-18T14:05:21.347Z,2.17
2023-05-18T14:16:20.254Z,2.20
2023-05-18T14:18:52.223Z,1.95
2023-05-18T14:21:22.044Z,1.90
2023-05-18T14:23:49.419Z,1.77
2023-05-18T14:27:01.829Z,1.90
2023-05-18T14:29:29.714Z,2.22
2023-05-18T14:32:20.538Z,2.20
2023-05-18T14:34:58.910Z,1.60
2023-05-18T14:37:42.369Z,1.88
2023-05-18T14:40:14.771Z,2.10
2023-05-18T14:42:54.900Z,2.00
2023-05-18T14:45:33.481Z,2.10
2023-05-18T14:50:46.676Z,3.03
2023-05-18T14:53:34.760Z,2.22
2023-05-18T14:56:06.114Z,2.20
2023-05-18T14:58:36.903Z,2.33
2023-05-18T15:01:09.175Z,2.20
2023-05-18T15:03:41.778Z,2.30
2023-05-18T15:06:09.587Z,2.72
2023-05-18T15:08:39.381Z,2.80
2023-05-18T15:11:06.792Z,2.80
2023-05-18T15:13:42.541Z,3.17
2023-05-18T15:16:35.671Z,2.35
2023-05-18T15:19:04.361Z,2.40
2023-05-18T15:21:31.757Z,2.65
2023-05-18T15:23:59.099Z,2.40
2023-05-18T15:26:28.454Z,2.53
2023-05-18T15:28:56.439Z,2.80
2023-05-18T15:31:33.828Z,2.17
2023-05-18T15:34:01.344Z,2.50
2023-05-18T15:36:54.240Z,2.40
2023-05-18T15:39:21.526Z,2.13
2023-05-18T15:41:49.540Z,2.40
2023-05-18T15:44:16.972Z,2.30
2023-05-18T15:46:44.540Z,2.65
2023-05-18T15:49:12.091Z,2.25
2023-05-18T15:51:42.706Z,2.63
2023-05-18T15:54:10.562Z,2.17
2023-05-18T15:56:38.348Z,2.95
2023-05-18T15:59:08.854Z,2.08
2023-05-18T16:01:36.465Z,2.40
2023-05-18T16:04:03.976Z,2.20
2023-05-18T16:06:35.163Z,2.25
2023-05-18T16:09:05.007Z,2.00
2023-05-18T16:11:32.206Z,2.53
2023-05-18T16:14:00.401Z,2.20
2023-05-18T16:16:28.133Z,1.98
2023-05-18T16:18:56.038Z,2.03
2023-05-18T16:21:23.990Z,2.30
2023-05-18T16:23:51.196Z,2.33
2023-05-18T16:26:18.556Z,2.65
2023-05-18T16:28:46.449Z,2.55
2023-05-18T16:31:16.323Z,2.80
2023-05-18T16:33:45.957Z,3.00
2023-05-18T16:36:13.528Z,3.22
2023-05-18T16:38:43.181Z,2.78
2023-05-18T16:41:16.573Z,2.70
2023-05-18T16:43:43.918Z,2.80
2023-05-18T16:46:11.882Z,2.70
2023-05-18T16:48:39.187Z,2.75
2023-05-18T16:51:06.887Z,2.90
2023-05-18T16:53:34.563Z,2.47
2023-05-18T16:56:03.326Z,2.38
2023-05-18T16:58:30.702Z,2.47
2023-05-18T17:00:58.028Z,2.50
2023-05-18T17:03:39.235Z,2.47
2023-05-18T17:06:42.700Z,2.58
2023-05-18T17:09:09.917Z,2.90
2023-05-18T17:11:37.240Z,2.58
2023-05-18T17:14:04.512Z,2.70
2023-05-18T17:16:40.143Z,2.72
2023-05-18T17:19:08.048Z,3.72
2023-05-18T17:21:35.426Z,2.63
2023-05-18T17:24:02.860Z,2.60
2023-05-18T17:26:33.496Z,2.90
2023-05-18T17:29:00.913Z,2.65
2023-05-18T17:31:28.872Z,3.25
2023-05-18T17:33:56.200Z,3.13
2023-05-18T17:36:23.521Z,3.10
2023-05-18T17:38:54.412Z,3.35
2023-05-18T17:41:25.806Z,3.35
2023-05-18T17:43:53.212Z,2.97
2023-05-18T17:46:20.622Z,3.22
2023-05-18T17:48:48.928Z,2.88
2023-05-18T17:51:16.605Z,2.65
2023-05-18T17:53:44.116Z,3.72
2023-05-18T17:56:14.030Z,3.67
2023-05-18T17:58:43.655Z,3.20
2023-05-18T18:01:12.165Z,3.25
2023-05-18T18:03:43.255Z,3.28
2023-05-18T18:06:11.083Z,2.88
2023-05-18T18:08:38.395Z,3.22
2023-05-18T18:11:08.406Z,3.10
2023-05-18T18:13:36.558Z,2.47
2023-05-18T18:16:04.063Z,2.88
2023-05-18T18:18:36.705Z,2.70
2023-05-18T18:21:06.287Z,3.20
2023-05-18T18:23:34.917Z,3.13
2023-05-18T18:26:02.950Z,2.90
2023-05-18T18:28:30.932Z,2.72
2023-05-18T18:30:58.463Z,3.22
2023-05-18T18:33:28.100Z,3.03
2023-05-18T18:35:58.992Z,2.53
2023-05-18T18:38:27.173Z,2.53
2023-05-18T18:41:01.487Z,2.45
2023-05-18T18:43:29.255Z,2.75
2023-05-18T18:45:57.258Z,2.60
2023-05-18T18:48:27.566Z,2.38
2023-05-18T18:50:54.942Z,3.30
2023-05-18T18:53:22.510Z,2.60
2023-05-18T18:55:50.277Z,2.40
2023-05-18T18:58:17.718Z,2.30
2023-05-18T19:00:45.286Z,2.78
2023-05-18T19:03:16.137Z,2.78
2023-05-18T19:05:45.711Z,2.80
2023-05-18T19:08:28.943Z,2.50
2023-05-18T19:10:56.260Z,2.47
2023-05-18T19:13:23.526Z,2.60
2023-05-18T19:15:56.438Z,2.63
2023-05-18T19:18:25.321Z,2.50
2023-05-18T19:21:03.545Z,2.40
2023-05-18T19:23:30.926Z,2.65
2023-05-18T19:26:02.155Z,2.25
2023-05-18T19:28:29.452Z,2.90
2023-05-18T19:30:57.092Z,2.65
2023-05-18T19:33:26.564Z,2.90
2023-05-18T19:35:54.508Z,2.20
2023-05-18T19:38:21.839Z,2.47
2023-05-18T19:40:49.291Z,2.95
2023-05-18T19:43:18.894Z,2.40
2023-05-18T19:46:14.448Z,2.60
2023-05-18T19:48:41.774Z,2.50
2023-05-18T19:51:09.157Z,2.58
2023-05-18T19:53:36.547Z,2.58
2023-05-18T19:56:03.967Z,2.50
2023-05-18T19:58:33.781Z,2.55
2023-05-18T20:01:01.198Z,2.38
2023-05-18T20:03:29.002Z,2.20
2023-05-18T20:05:56.582Z,2.40
2023-05-18T20:08:23.892Z,2.70
2023-05-18T20:10:52.437Z,2.42
2023-05-18T20:13:19.781Z,2.58
2023-05-18T20:15:47.148Z,2.70
2023-05-18T20:18:14.531Z,2.40
2023-05-18T20:20:44.778Z,2.55
2023-05-18T20:23:12.128Z,2.38
2023-05-18T20:25:44.968Z,2.42
2023-05-18T20:28:12.322Z,2.70
2023-05-18T20:30:39.792Z,2.42
2023-05-18T20:33:07.486Z,2.75
2023-05-18T20:35:34.934Z,2.60
2023-05-18T20:38:04.448Z,2.80
2023-05-18T20:40:31.919Z,2.30
2023-05-18T20:43:03.046Z,2.50
2023-05-18T20:45:31.371Z,2.60
2023-05-18T20:48:01.296Z,2.97
2023-05-18T20:50:28.702Z,2.50
2023-05-18T20:52:55.999Z,2.92
2023-05-18T20:55:24.001Z,2.50
2023-05-18T20:57:51.354Z,2.65
2023-05-18T21:00:21.558Z,2.90
2023-05-18T21:02:48.929Z,2.38
2023-05-18T21:05:16.638Z,2.63
2023-05-18T21:07:44.049Z,2.83
2023-05-18T21:10:11.675Z,2.50
2023-05-18T21:12:38.978Z,2.40
2023-05-18T21:15:07.181Z,2.42
2023-05-18T21:17:34.610Z,2.25
2023-05-18T21:20:01.955Z,3.08
2023-05-18T21:22:29.301Z,2.58
2023-05-18T21:24:56.700Z,2.88
2023-05-18T21:27:24.076Z,2.55
2023-05-18T21:29:51.522Z,2.40
2023-05-18T21:32:18.968Z,2.80
2023-05-18T21:34:46.374Z,2.53
2023-05-18T21:37:13.957Z,2.30
2023-05-18T21:39:44.278Z,2.42
2023-05-18T21:42:11.499Z,2.45
2023-05-18T21:44:40.903Z,2.47
2023-05-18T21:47:10.335Z,2.45
2023-05-18T21:49:40.192Z,2.63
2023-05-18T21:52:07.500Z,3.00
2023-05-18T21:54:35.489Z,2.75
2023-05-18T21:57:03.092Z,3.13
2023-05-18T21:59:30.391Z,2.85
2023-05-18T22:01:57.662Z,3.20
2023-05-18T22:04:24.946Z,2.97
2023-05-18T22:06:55.233Z,3.10
2023-05-18T22:09:23.828Z,3.10
2023-05-18T22:11:51.158Z,3.15
2023-05-18T22:14:18.665Z,3.47
2023-05-18T22:16:46.594Z,3.00
2023-05-18T22:19:13.915Z,3.00
2023-05-18T22:21:43.406Z,2.75
2023-05-18T22:24:10.558Z,2.65
2023-05-18T22:26:37.908Z,2.58
2023-05-18T22:29:05.273Z,2.53
2023-05-18T22:31:32.804Z,2.85
2023-05-18T22:34:00.182Z,2.63
2023-05-18T22:36:29.421Z,2.78
2023-05-18T22:38:57.473Z,2.75
2023-05-18T22:41:24.914Z,2.55
2023-05-18T22:43:52.693Z,2.30
2023-05-18T22:46:20.153Z,2.30
2023-05-18T22:48:48.119Z,2.40
2023-05-18T22:51:15.711Z,2.30
2023-05-18T22:53:42.965Z,2.47
2023-05-18T22:56:10.266Z,2.50
2023-05-18T22:58:37.788Z,2.35
2023-05-18T23:01:04.981Z,2.42
2023-05-18T23:03:34.588Z,2.80
2023-05-18T23:06:03.249Z,2.75
2023-05-18T23:08:30.718Z,2.45
2023-05-18T23:11:01.769Z,2.50
2023-05-18T23:13:30.979Z,2.58
2023-05-18T23:16:02.357Z,2.10
2023-05-18T23:18:31.923Z,2.10
2023-05-18T23:20:59.184Z,2.20
2023-05-18T23:23:35.971Z,2.50
2023-05-18T23:26:05.327Z,2.03
2023-05-18T23:28:32.540Z,2.53
2023-05-18T23:31:01.237Z,2.25
2023-05-18T23:33:29.149Z,2.28
2023-05-18T23:36:02.440Z,2.22
2023-05-18T23:38:38.040Z,2.10
2023-05-18T23:41:06.192Z,2.10
2023-05-18T23:43:34.113Z,2.45
2023-05-18T23:46:01.833Z,2.33
2023-05-18T23:48:32.662Z,2.30
2023-05-18T23:51:03.396Z,2.65
2023-05-18T23:53:31.285Z,2.20
2023-05-18T23:55:59.587Z,2.00
2023-05-18T23:58:32.033Z,2.50
